Time;durP1;ratioP1;P1;durP2;ratioP2;P2;SDS_P1;SDS_P2;PMS_P1;PMS_P2;Temp;Humidity;BMP_temperature;BMP_pressure;BME280_temperature;BME280_humidity;BME280_pressure;Samples;Min_cycle;Max_cycle;Signal;HPM_P1;HPM_P2
2023/03/20 00:02:24;;;;;;;5.05;2.78;;;;;;;;;;6120508;23;20743;-80
2023/03/20 00:04:49;;;;;;;4.15;2.38;;;;;;;;;;6120069;23;20013;-80
2023/03/20 00:07:15;;;;;;;5.88;2.92;;;;;;;;;;6120036;23;20088;-79
2023/03/20 00:09:41;;;;;;;4.70;2.53;;;;;;;;;;6120107;23;20040;-80
2023/03/20 00:12:11;;;;;;;4.43;2.50;;;;;;;;;;6146346;23;20021;-79
2023/03/20 00:14:37;;;;;;;4.25;2.45;;;;;;;;;;6120895;23;20094;-79
2023/03/20 00:17:09;;;;;;;5.45;2.70;;;;;;;;;;6146815;23;20459;-79
2023/03/20 00:19:34;;;;;;;5.57;2.42;;;;;;;;;;6120162;23;20108;-79
2023/03/20 00:22:00;;;;;;;6.28;2.53;;;;;;;;;;6146312;23;20056;-79
2023/03/20 00:24:25;;;;;;;6.22;2.95;;;;;;;;;;6120729;23;20049;-80
2023/03/20 00:26:51;;;;;;;5.93;2.90;;;;;;;;;;6119651;23;20072;-79
2023/03/20 00:29:29;;;;;;;4.38;2.47;;;;;;;;;;6146837;23;20021;-80
2023/03/20 00:31:55;;;;;;;10.23;2.85;;;;;;;;;;6120579;23;20044;-79
2023/03/20 00:34:24;;;;;;;5.50;2.90;;;;;;;;;;6146345;23;20363;-79
2023/03/20 00:36:50;;;;;;;6.47;2.80;;;;;;;;;;6120135;23;20380;-80
2023/03/20 00:39:16;;;;;;;4.78;2.60;;;;;;;;;;6095107;23;20455;-80
2023/03/20 00:41:52;;;;;;;5.82;2.80;;;;;;;;;;6119311;23;20016;-81
2023/03/20 00:44:23;;;;;;;6.90;3.10;;;;;;;;;;6146450;23;20478;-80
2023/03/20 00:46:56;;;;;;;6.05;3.17;;;;;;;;;;6145493;23;20605;-80
2023/03/20 00:49:25;;;;;;;6.07;3.10;;;;;;;;;;6119938;23;20025;-80
2023/03/20 00:51:50;;;;;;;7.53;3.13;;;;;;;;;;6118748;23;20375;-80
2023/03/20 00:54:16;;;;;;;5.63;3.00;;;;;;;;;;6095826;23;20017;-80
2023/03/20 00:56:53;;;;;;;7.45;2.80;;;;;;;;;;6118961;23;20013;-79
2023/03/20 00:59:21;;;;;;;6.40;2.78;;;;;;;;;;6120017;23;20024;-80
2023/03/20 01:01:47;;;;;;;6.45;2.85;;;;;;;;;;6118862;23;20013;-80
2023/03/20 01:04:15;;;;;;;7.43;3.05;;;;;;;;;;6146548;23;20125;-79
2023/03/20 01:06:41;;;;;;;6.15;2.95;;;;;;;;;;6119542;23;20009;-80
2023/03/20 01:09:07;;;;;;;5.05;2.80;;;;;;;;;;6095983;23;20041;-79
2023/03/20 01:11:33;;;;;;;7.20;2.85;;;;;;;;;;6120827;23;20088;-79
2023/03/20 01:13:58;;;;;;;4.80;2.80;;;;;;;;;;6095301;23;20016;-79
2023/03/20 01:16:25;;;;;;;5.03;2.95;;;;;;;;;;6146396;23;20799;-79
2023/03/20 01:18:52;;;;;;;6.72;3.03;;;;;;;;;;6119848;23;20021;-79
2023/03/20 01:21:18;;;;;;;7.57;3.08;;;;;;;;;;6120007;23;20785;-80
2023/03/20 01:23:44;;;;;;;5.93;2.72;;;;;;;;;;6120727;23;20015;-80
2023/03/20 01:26:24;;;;;;;5.57;3.15;;;;;;;;;;6145166;23;20027;-80
2023/03/20 01:28:50;;;;;;;4.65;2.90;;;;;;;;;;6094324;23;20428;-79
2023/03/20 01:31:16;;;;;;;6.38;3.03;;;;;;;;;;6094824;23;20017;-80
2023/03/20 01:33:41;;;;;;;4.85;2.80;;;;;;;;;;6146441;23;20020;-79
2023/03/20 01:36:10;;;;;;;6.43;3.08;;;;;;;;;;6145145;23;20021;-79
2023/03/20 01:38:36;;;;;;;5.60;3.03;;;;;;;;;;6146071;23;20013;-79
2023/03/20 01:41:09;;;;;;;4.97;3.05;;;;;;;;;;6119780;23;20482;-79
2023/03/20 01:43:34;;;;;;;5.70;3.35;;;;;;;;;;6120524;23;20009;-80
2023/03/20 01:46:02;;;;;;;5.68;3.22;;;;;;;;;;6119427;23;20079;-80
2023/03/20 01:48:51;;;;;;;4.97;2.90;;;;;;;;;;6146274;23;20092;-80
2023/03/20 01:51:18;;;;;;;5.78;3.05;;;;;;;;;;6129084;23;20018;-80
2023/03/20 01:53:47;;;;;;;7.50;2.97;;;;;;;;;;6120276;23;20085;-80
2023/03/20 01:56:14;;;;;;;5.05;2.70;;;;;;;;;;6094239;23;20017;-79
2023/03/20 01:58:43;;;;;;;5.93;2.90;;;;;;;;;;6146278;23;20021;-80
2023/03/20 02:01:12;;;;;;;4.78;2.88;;;;;;;;;;6118092;23;20097;-80
2023/03/20 02:03:38;;;;;;;5.65;2.95;;;;;;;;;;6120357;23;20017;-80
2023/03/20 02:06:05;;;;;;;5.00;3.05;;;;;;;;;;6119652;23;20436;-79
2023/03/20 02:08:31;;;;;;;7.13;3.20;;;;;;;;;;6146322;23;20022;-79
2023/03/20 02:10:58;;;;;;;5.05;2.85;;;;;;;;;;6119336;23;20256;-79
2023/03/20 02:13:26;;;;;;;6.07;3.10;;;;;;;;;;6119851;23;20024;-80
2023/03/20 02:16:04;;;;;;;6.22;2.90;;;;;;;;;;6118888;23;20679;-80
2023/03/20 02:18:30;;;;;;;5.13;2.75;;;;;;;;;;6120147;23;20020;-80
2023/03/20 02:21:11;;;;;;;4.90;2.80;;;;;;;;;;6094655;23;20447;-80
2023/03/20 02:23:39;;;;;;;5.70;3.42;;;;;;;;;;6145379;23;20100;-79
2023/03/20 02:26:23;;;;;;;5.90;3.20;;;;;;;;;;6119655;23;20021;-80
2023/03/20 02:29:09;;;;;;;6.53;2.97;;;;;;;;;;6145456;23;20467;-79
2023/03/20 02:31:37;;;;;;;4.73;2.70;;;;;;;;;;6118373;23;20092;-79
2023/03/20 02:34:16;;;;;;;5.15;3.00;;;;;;;;;;6120010;23;20021;-80
2023/03/20 02:36:50;;;;;;;6.03;2.83;;;;;;;;;;6144627;23;20622;-79
2023/03/20 02:39:28;;;;;;;6.15;2.85;;;;;;;;;;6144973;23;20060;-79
2023/03/20 02:41:56;;;;;;;;;;;;;;;;;;6145658;23;20049;-79
2023/03/20 02:44:43;;;;;;;6.15;2.85;;;;;;;;;;6168957;23;19932;-80
2023/03/20 02:47:26;;;;;;;4.47;2.72;;;;;;;;;;6118561;23;20133;-80
2023/03/20 02:49:54;;;;;;;4.68;2.72;;;;;;;;;;6145343;23;20033;-80
2023/03/20 02:52:42;;;;;;;5.63;2.65;;;;;;;;;;6118705;23;20069;-80
2023/03/20 02:55:40;;;;;;;5.05;2.83;;;;;;;;;;6118465;23;20018;-80
2023/03/20 02:58:15;;;;;;;6.10;2.75;;;;;;;;;;6119415;23;20045;-80
2023/03/20 03:00:46;;;;;;;6.38;2.97;;;;;;;;;;6117920;23;20159;-80
2023/03/20 03:03:23;;;;;;;5.82;2.95;;;;;;;;;;6120029;23;20056;-80
2023/03/20 03:05:57;;;;;;;6.23;2.90;;;;;;;;;;6118066;23;20017;-79
2023/03/20 03:08:25;;;;;;;4.70;2.70;;;;;;;;;;6119719;23;20781;-80
2023/03/20 03:10:54;;;;;;;4.93;2.78;;;;;;;;;;6093566;23;20013;-79
2023/03/20 03:13:24;;;;;;;5.95;3.10;;;;;;;;;;6120456;23;20021;-80
2023/03/20 03:15:52;;;;;;;5.55;3.38;;;;;;;;;;6146232;23;20009;-79
2023/03/20 03:18:18;;;;;;;;;;;;;;;;;;6148319;23;20017;-79
2023/03/20 03:20:44;;;;;;;4.90;2.90;;;;;;;;;;6143616;23;19964;-79
2023/03/20 03:23:19;;;;;;;5.50;3.20;;;;;;;;;;6147841;23;20017;-79
2023/03/20 03:25:45;;;;;;;5.95;2.90;;;;;;;;;;6120564;23;20042;-79
2023/03/20 03:28:36;;;;;;;5.85;2.88;;;;;;;;;;6147083;23;20743;-79
2023/03/20 03:31:07;;;;;;;5.63;3.15;;;;;;;;;;6120860;23;20367;-80
2023/03/20 03:33:34;;;;;;;5.63;3.50;;;;;;;;;;6121605;23;20018;-79
2023/03/20 03:36:21;;;;;;;;;;;;;;;;;;6146267;23;20101;-80
2023/03/20 03:38:55;;;;;;;;;;;;;;;;;;6145991;23;19927;-79
2023/03/20 03:41:23;;;;;;;4.93;3.25;;;;;;;;;;6170609;23;20330;-79
2023/03/20 03:44:04;;;;;;;5.80;3.53;;;;;;;;;;6147512;23;20021;-79
2023/03/20 03:46:38;;;;;;;6.13;3.47;;;;;;;;;;6120434;23;20076;-80
2023/03/20 03:49:04;;;;;;;6.20;3.80;;;;;;;;;;6146891;23;20037;-80
2023/03/20 03:51:32;;;;;;;6.22;3.80;;;;;;;;;;6120775;23;20403;-80
2023/03/20 03:54:00;;;;;;;6.05;4.05;;;;;;;;;;6096389;23;20421;-80
2023/03/20 03:56:28;;;;;;;6.35;3.78;;;;;;;;;;6146423;23;20565;-80
2023/03/20 03:58:56;;;;;;;5.32;3.78;;;;;;;;;;6146963;23;20452;-79
2023/03/20 04:01:24;;;;;;;6.15;3.58;;;;;;;;;;6119852;23;20045;-79
2023/03/20 04:03:54;;;;;;;;;;;;;;;;;;6097192;23;20056;-79
2023/03/20 04:06:19;;;;;;;6.45;4.10;;;;;;;;;;6168811;23;19912;-80
2023/03/20 04:08:45;;;;;;;7.22;4.30;;;;;;;;;;6147262;23;20040;-79
2023/03/20 04:11:15;;;;;;;5.65;3.88;;;;;;;;;;6095158;23;20033;-79
2023/03/20 04:13:41;;;;;;;7.13;4.35;;;;;;;;;;6121177;23;20013;-79
2023/03/20 04:16:11;;;;;;;6.00;3.78;;;;;;;;;;6095592;23;20088;-80
2023/03/20 04:18:36;;;;;;;6.88;4.40;;;;;;;;;;6146848;23;20435;-79
2023/03/20 04:21:02;;;;;;;7.78;4.25;;;;;;;;;;6146836;23;20014;-80
2023/03/20 04:23:27;;;;;;;7.40;3.90;;;;;;;;;;6096329;23;20379;-80
2023/03/20 04:25:52;;;;;;;9.73;4.35;;;;;;;;;;6118996;23;20017;-80
2023/03/20 04:28:18;;;;;;;7.05;4.55;;;;;;;;;;6096240;23;20025;-80
2023/03/20 04:30:47;;;;;;;7.88;4.25;;;;;;;;;;6119582;23;20017;-79
2023/03/20 04:33:12;;;;;;;7.95;4.90;;;;;;;;;;6146878;23;20026;-79
2023/03/20 04:35:38;;;;;;;7.97;4.72;;;;;;;;;;6119579;23;20017;-82
2023/03/20 04:38:03;;;;;;;8.32;4.97;;;;;;;;;;6122375;23;20087;-83
2023/03/20 04:40:30;;;;;;;7.22;4.38;;;;;;;;;;6145692;23;20021;-83
2023/03/20 04:42:55;;;;;;;8.63;5.03;;;;;;;;;;6147268;23;20018;-83
2023/03/20 04:45:21;;;;;;;10.10;4.75;;;;;;;;;;6145715;23;20514;-83
2023/03/20 04:47:46;;;;;;;8.52;4.95;;;;;;;;;;6146999;23;20017;-82
2023/03/20 04:50:12;;;;;;;8.05;4.85;;;;;;;;;;6145377;23;20017;-82
2023/03/20 04:52:38;;;;;;;10.23;5.38;;;;;;;;;;6120859;23;20020;-82
2023/03/20 04:55:04;;;;;;;10.15;5.55;;;;;;;;;;6147124;23;20529;-82
2023/03/20 04:57:30;;;;;;;10.32;5.88;;;;;;;;;;6145702;23;20017;-82
2023/03/20 04:59:56;;;;;;;9.77;5.03;;;;;;;;;;6146274;23;20447;-82
2023/03/20 05:02:24;;;;;;;8.68;5.18;;;;;;;;;;6145162;23;20013;-82
2023/03/20 05:04:49;;;;;;;8.75;5.25;;;;;;;;;;6146284;23;20440;-82
2023/03/20 05:07:15;;;;;;;9.75;5.63;;;;;;;;;;6095612;23;20045;-82
2023/03/20 05:09:40;;;;;;;9.95;5.88;;;;;;;;;;6095939;23;20010;-83
2023/03/20 05:12:06;;;;;;;10.88;6.85;;;;;;;;;;6119865;23;20018;-82
2023/03/20 05:14:31;;;;;;;9.20;5.85;;;;;;;;;;6147564;23;20084;-83
2023/03/20 05:16:57;;;;;;;10.88;6.10;;;;;;;;;;6144558;23;20396;-83
2023/03/20 05:19:22;;;;;;;14.77;6.30;;;;;;;;;;6120138;23;20017;-82
2023/03/20 05:21:47;;;;;;;11.50;6.22;;;;;;;;;;6144906;23;20021;-82
2023/03/20 05:24:13;;;;;;;10.73;6.55;;;;;;;;;;6147097;23;20072;-82
2023/03/20 05:26:38;;;;;;;11.70;6.13;;;;;;;;;;6095408;23;20020;-82
2023/03/20 05:29:04;;;;;;;11.32;6.47;;;;;;;;;;6120333;23;20419;-81
2023/03/20 05:31:29;;;;;;;9.48;6.10;;;;;;;;;;6145582;23;20021;-81
2023/03/20 05:33:56;;;;;;;11.20;6.28;;;;;;;;;;6094506;23;20196;-81
2023/03/20 05:36:21;;;;;;;13.25;7.45;;;;;;;;;;6118569;23;20512;-82
2023/03/20 05:38:47;;;;;;;11.50;6.68;;;;;;;;;;6145899;23;20037;-82
2023/03/20 05:41:12;;;;;;;10.88;7.07;;;;;;;;;;6117831;23;20120;-82
2023/03/20 05:43:38;;;;;;;12.27;6.80;;;;;;;;;;6120720;23;20021;-82
2023/03/20 05:46:03;;;;;;;11.20;6.32;;;;;;;;;;6118788;23;20020;-82
2023/03/20 05:48:29;;;;;;;10.00;6.38;;;;;;;;;;6119873;23;20452;-83
2023/03/20 05:50:55;;;;;;;11.30;6.63;;;;;;;;;;6144804;23;20404;-82
2023/03/20 05:53:20;;;;;;;11.20;7.15;;;;;;;;;;6146463;23;20137;-82
2023/03/20 05:55:45;;;;;;;12.10;6.72;;;;;;;;;;6094716;23;20014;-81
2023/03/20 05:58:11;;;;;;;11.10;6.85;;;;;;;;;;6146243;23;20044;-82
2023/03/20 06:00:37;;;;;;;12.23;6.80;;;;;;;;;;6094352;23;20013;-82
2023/03/20 06:03:03;;;;;;;14.55;6.85;;;;;;;;;;6146739;23;20021;-82
2023/03/20 06:05:28;;;;;;;11.13;6.35;;;;;;;;;;6118368;23;20582;-81
2023/03/20 06:07:54;;;;;;;11.13;6.50;;;;;;;;;;6119807;23;20056;-81
2023/03/20 06:10:19;;;;;;;12.93;7.05;;;;;;;;;;6145166;23;20026;-81
2023/03/20 06:12:45;;;;;;;11.75;6.93;;;;;;;;;;6119615;23;20017;-81
2023/03/20 06:15:11;;;;;;;12.50;7.00;;;;;;;;;;6118683;23;20020;-80
2023/03/20 06:17:36;;;;;;;11.43;6.93;;;;;;;;;;6119548;23;20012;-79
2023/03/20 06:20:02;;;;;;;13.68;6.78;;;;;;;;;;6120221;23;20083;-80
2023/03/20 06:22:28;;;;;;;11.15;7.00;;;;;;;;;;6118280;23;20020;-80
2023/03/20 06:24:53;;;;;;;16.23;7.82;;;;;;;;;;6145416;23;20455;-80
2023/03/20 06:27:19;;;;;;;14.50;8.25;;;;;;;;;;6118561;23;20022;-81
2023/03/20 06:29:45;;;;;;;14.98;8.25;;;;;;;;;;6095565;23;20015;-80
2023/03/20 06:32:12;;;;;;;15.73;8.43;;;;;;;;;;6094667;23;20025;-80
2023/03/20 06:34:37;;;;;;;14.45;8.40;;;;;;;;;;6119273;23;20392;-80
2023/03/20 06:37:02;;;;;;;14.20;8.18;;;;;;;;;;6095103;23;20026;-82
2023/03/20 06:39:28;;;;;;;15.65;8.98;;;;;;;;;;6094612;23;20464;-83
2023/03/20 06:41:54;;;;;;;15.30;8.80;;;;;;;;;;6144864;23;20017;-82
2023/03/20 06:44:19;;;;;;;16.45;9.00;;;;;;;;;;6095651;23;20355;-83
2023/03/20 06:46:45;;;;;;;18.30;10.70;;;;;;;;;;6118704;23;20017;-81
2023/03/20 06:49:10;;;;;;;18.73;10.55;;;;;;;;;;6144873;23;20101;-83
2023/03/20 06:51:36;;;;;;;19.85;10.68;;;;;;;;;;6144459;23;20018;-78
2023/03/20 06:54:01;;;;;;;20.73;10.70;;;;;;;;;;6118027;23;20714;-84
2023/03/20 06:56:27;;;;;;;20.95;11.00;;;;;;;;;;6076174;23;20089;-84
2023/03/20 06:58:52;;;;;;;22.33;11.05;;;;;;;;;;6117640;23;20029;-85
2023/03/20 07:01:19;;;;;;;20.60;10.20;;;;;;;;;;6119700;23;20343;-85
2023/03/20 07:03:45;;;;;;;20.55;10.30;;;;;;;;;;6095707;23;20404;-85
2023/03/20 07:06:11;;;;;;;20.80;10.13;;;;;;;;;;6061640;23;20018;-87
2023/03/20 07:08:37;;;;;;;22.80;10.73;;;;;;;;;;6119752;23;20325;-86
2023/03/20 07:11:23;;;;;;;22.33;10.65;;;;;;;;;;6119093;23;20102;-86
2023/03/20 07:13:48;;;;;;;26.65;11.48;;;;;;;;;;6058299;23;20093;-84
2023/03/20 07:16:13;;;;;;;24.90;12.18;;;;;;;;;;6083133;23;20042;-84
2023/03/20 07:18:39;;;;;;;25.08;11.98;;;;;;;;;;6058892;23;20022;-77
2023/03/20 07:21:06;;;;;;;21.50;11.40;;;;;;;;;;6059136;23;20102;-79
2023/03/20 07:23:33;;;;;;;24.63;11.55;;;;;;;;;;6083312;23;20018;-79
2023/03/20 07:25:58;;;;;;;24.67;12.70;;;;;;;;;;6058033;23;20089;-80
2023/03/20 07:28:24;;;;;;;25.77;12.18;;;;;;;;;;6083179;23;20065;-79
2023/03/20 07:30:50;;;;;;;22.52;11.30;;;;;;;;;;6081526;23;20095;-79
2023/03/20 07:33:16;;;;;;;22.63;11.40;;;;;;;;;;6083201;23;20427;-79
2023/03/20 07:35:42;;;;;;;24.77;12.10;;;;;;;;;;6082018;23;20023;-79
2023/03/20 07:38:07;;;;;;;22.20;10.55;;;;;;;;;;6058791;23;20022;-79
2023/03/20 07:40:32;;;;;;;22.67;10.85;;;;;;;;;;6082738;23;20424;-78
2023/03/20 07:42:58;;;;;;;25.95;11.02;;;;;;;;;;6058553;23;20022;-79
2023/03/20 07:45:23;;;;;;;22.40;10.38;;;;;;;;;;6082485;23;20085;-79
2023/03/20 07:47:49;;;;;;;22.15;10.43;;;;;;;;;;6082659;23;20838;-77
2023/03/20 07:50:16;;;;;;;22.27;10.63;;;;;;;;;;6094505;23;20060;-78
2023/03/20 07:52:46;;;;;;;20.60;9.45;;;;;;;;;;6145380;23;20014;-79
2023/03/20 07:55:12;;;;;;;23.83;10.48;;;;;;;;;;6116907;23;20117;-79
2023/03/20 07:57:37;;;;;;;21.67;10.02;;;;;;;;;;6143347;23;20176;-77
2023/03/20 08:00:03;;;;;;;22.17;9.95;;;;;;;;;;6120022;23;20084;-79
2023/03/20 08:02:29;;;;;;;22.85;11.02;;;;;;;;;;6119377;23;20020;-79
2023/03/20 08:04:54;;;;;;;23.13;10.77;;;;;;;;;;6146199;23;20343;-77
2023/03/20 08:07:20;;;;;;;27.50;11.48;;;;;;;;;;6078798;23;20022;-77
2023/03/20 08:09:45;;;;;;;21.90;9.82;;;;;;;;;;6120050;23;20014;-77
2023/03/20 08:12:10;;;;;;;21.15;10.02;;;;;;;;;;6120197;23;20056;-77
2023/03/20 08:14:37;;;;;;;23.20;10.10;;;;;;;;;;6146713;23;20024;-78
2023/03/20 08:17:03;;;;;;;19.55;9.88;;;;;;;;;;6096260;23;20101;-78
2023/03/20 08:19:28;;;;;;;23.45;10.88;;;;;;;;;;6120164;23;20056;-78
2023/03/20 08:21:54;;;;;;;20.35;10.52;;;;;;;;;;6120444;23;20044;-77
2023/03/20 08:24:20;;;;;;;27.10;11.57;;;;;;;;;;6120429;23;20021;-77
2023/03/20 08:26:46;;;;;;;23.05;9.88;;;;;;;;;;6120324;23;20087;-77
2023/03/20 08:29:11;;;;;;;20.23;8.95;;;;;;;;;;6120279;23;20464;-78
2023/03/20 08:31:38;;;;;;;20.13;9.70;;;;;;;;;;6145753;23;20056;-77
2023/03/20 08:34:03;;;;;;;23.35;9.48;;;;;;;;;;6121081;23;20017;-78
2023/03/20 08:36:29;;;;;;;22.00;9.02;;;;;;;;;;6118862;23;20014;-78
2023/03/20 08:38:54;;;;;;;18.13;9.30;;;;;;;;;;6119628;23;20080;-78
2023/03/20 08:41:20;;;;;;;20.13;10.20;;;;;;;;;;6119121;23;20068;-79
2023/03/20 08:43:46;;;;;;;19.27;9.50;;;;;;;;;;6120548;23;20014;-78
2023/03/20 08:46:12;;;;;;;19.33;9.80;;;;;;;;;;6145731;23;20128;-78
2023/03/20 08:48:37;;;;;;;19.67;8.40;;;;;;;;;;6119896;23;20140;-78
2023/03/20 08:51:03;;;;;;;17.85;8.43;;;;;;;;;;6120644;23;20372;-78
2023/03/20 08:53:28;;;;;;;18.58;7.85;;;;;;;;;;6120185;23;20344;-78
2023/03/20 08:55:54;;;;;;;17.05;7.70;;;;;;;;;;6119424;23;20014;-78
2023/03/20 08:58:20;;;;;;;15.98;7.70;;;;;;;;;;6120801;23;20013;-78
2023/03/20 09:00:54;;;;;;;17.80;8.52;;;;;;;;;;6104645;23;20036;-79
2023/03/20 09:03:35;;;;;;;16.67;8.43;;;;;;;;;;6119548;23;20088;-78
2023/03/20 09:06:03;;;;;;;14.10;7.72;;;;;;;;;;6145405;23;20026;-78
2023/03/20 09:08:29;;;;;;;14.30;7.43;;;;;;;;;;6120215;23;20037;-78
2023/03/20 09:10:54;;;;;;;14.75;7.60;;;;;;;;;;6118710;23;20384;-78
2023/03/20 09:13:21;;;;;;;14.95;7.07;;;;;;;;;;6120135;23;20358;-78
2023/03/20 09:15:46;;;;;;;13.90;7.43;;;;;;;;;;6145069;23;20041;-78
2023/03/20 09:18:12;;;;;;;14.10;7.00;;;;;;;;;;6146118;23;20032;-78
2023/03/20 09:20:37;;;;;;;13.85;7.35;;;;;;;;;;6144916;23;20010;-79
2023/03/20 09:23:03;;;;;;;14.73;7.30;;;;;;;;;;6147113;23;20351;-79
2023/03/20 09:25:28;;;;;;;14.23;7.15;;;;;;;;;;6145453;23;20025;-79
2023/03/20 09:27:54;;;;;;;14.73;6.85;;;;;;;;;;6119429;23;20020;-78
2023/03/20 09:30:22;;;;;;;16.77;7.82;;;;;;;;;;6068917;23;20014;-78
2023/03/20 09:32:47;;;;;;;;;;;;;;;;;;6095866;23;20017;-78
2023/03/20 09:35:12;;;;;;;13.75;7.38;;;;;;;;;;6168569;23;20028;-78
2023/03/20 09:37:38;;;;;;;15.90;7.25;;;;;;;;;;6119080;23;20149;-78
2023/03/20 09:40:04;;;;;;;13.75;6.07;;;;;;;;;;6145973;23;20026;-78
2023/03/20 09:43:06;;;;;;;12.80;6.40;;;;;;;;;;6119621;23;20040;-77
2023/03/20 09:46:00;;;;;;;14.20;6.50;;;;;;;;;;6090452;23;20399;-78
2023/03/20 09:48:37;;;;;;;14.65;6.75;;;;;;;;;;6119573;23;20025;-79
2023/03/20 09:51:08;;;;;;;16.15;7.22;;;;;;;;;;6118875;23;20041;-78
2023/03/20 09:53:38;;;;;;;12.95;6.70;;;;;;;;;;6145976;23;20084;-79
2023/03/20 09:56:04;;;;;;;13.93;6.15;;;;;;;;;;6119032;23;20022;-79
2023/03/20 09:58:37;;;;;;;13.43;6.65;;;;;;;;;;6120219;23;20022;-78
2023/03/20 10:01:05;;;;;;;13.15;6.40;;;;;;;;;;6119506;23;20040;-79
2023/03/20 10:03:50;;;;;;;11.18;5.85;;;;;;;;;;6119928;23;20036;-78
2023/03/20 10:06:16;;;;;;;11.90;5.50;;;;;;;;;;6119016;23;20041;-78
2023/03/20 10:08:43;;;;;;;12.80;5.85;;;;;;;;;;6119479;23;20014;-78
2023/03/20 10:11:33;;;;;;;10.13;5.37;;;;;;;;;;6093696;23;20075;-78
2023/03/20 10:14:11;;;;;;;11.20;5.55;;;;;;;;;;6145252;23;20013;-78
2023/03/20 10:16:52;;;;;;;11.18;5.10;;;;;;;;;;6118899;23;20104;-80
2023/03/20 10:19:32;;;;;;;11.32;5.47;;;;;;;;;;6119577;23;20159;-80
2023/03/20 10:22:12;;;;;;;11.93;5.50;;;;;;;;;;6094651;23;20379;-79
2023/03/20 10:24:40;;;;;;;8.68;4.78;;;;;;;;;;6145863;23;20479;-77
2023/03/20 10:27:32;;;;;;;10.63;4.90;;;;;;;;;;6145486;23;20129;-77
2023/03/20 10:30:15;;;;;;;9.02;4.60;;;;;;;;;;6119453;23;20025;-79
2023/03/20 10:32:46;;;;;;;9.32;4.07;;;;;;;;;;6118596;23;20527;-79
2023/03/20 10:35:57;;;;;;;12.90;5.25;;;;;;;;;;6094291;23;20029;-79
2023/03/20 10:38:59;;;;;;;8.23;4.03;;;;;;;;;;6111995;23;20460;-79
2023/03/20 10:41:31;;;;;;;8.15;4.18;;;;;;;;;;6119006;23;20076;-78
2023/03/20 10:43:57;;;;;;;8.50;4.18;;;;;;;;;;6118725;23;20025;-80
2023/03/20 10:46:37;;;;;;;9.57;4.90;;;;;;;;;;6092837;23;20018;-79
2023/03/20 10:49:25;;;;;;;10.27;4.03;;;;;;;;;;6094290;23;20418;-79
2023/03/20 10:51:57;;;;;;;8.68;4.03;;;;;;;;;;6118257;23;20699;-79
2023/03/20 10:54:36;;;;;;;9.05;4.38;;;;;;;;;;6119631;23;20040;-78
2023/03/20 10:57:04;;;;;;;8.55;4.40;;;;;;;;;;6119432;23;20371;-78
2023/03/20 10:59:49;;;;;;;12.30;3.90;;;;;;;;;;6094608;23;20424;-80
2023/03/20 11:02:16;;;;;;;7.50;3.90;;;;;;;;;;6118573;23;20021;-78
2023/03/20 11:04:42;;;;;;;8.57;4.23;;;;;;;;;;6118610;23;20452;-78
2023/03/20 11:07:14;;;;;;;9.23;4.60;;;;;;;;;;6118436;23;20091;-78
2023/03/20 11:09:39;;;;;;;9.07;4.03;;;;;;;;;;6144710;23;20014;-77
2023/03/20 11:12:05;;;;;;;9.15;3.95;;;;;;;;;;6095603;23;20469;-78
2023/03/20 11:14:36;;;;;;;7.88;3.78;;;;;;;;;;6119603;23;20392;-77
2023/03/20 11:17:03;;;;;;;8.95;4.13;;;;;;;;;;6075770;23;20022;-79
2023/03/20 11:19:33;;;;;;;7.23;3.53;;;;;;;;;;6102053;23;20014;-79
2023/03/20 11:22:03;;;;;;;8.75;3.40;;;;;;;;;;6117964;23;20027;-79
2023/03/20 11:24:34;;;;;;;7.65;3.88;;;;;;;;;;6118547;23;20017;-79
2023/03/20 11:27:11;;;;;;;8.07;3.50;;;;;;;;;;6143783;23;20029;-79
2023/03/20 11:29:39;;;;;;;8.45;3.88;;;;;;;;;;6118712;23;20018;-79
2023/03/20 11:32:10;;;;;;;7.97;3.92;;;;;;;;;;6118063;23;20412;-79
2023/03/20 11:34:37;;;;;;;7.22;3.53;;;;;;;;;;6093984;23;20022;-78
2023/03/20 11:37:06;;;;;;;8.73;4.00;;;;;;;;;;6119695;23;20108;-79
2023/03/20 11:39:32;;;;;;;8.52;4.10;;;;;;;;;;6120003;23;20075;-80
2023/03/20 11:42:00;;;;;;;9.70;3.70;;;;;;;;;;6094402;23;20024;-81
2023/03/20 11:44:35;;;;;;;8.27;3.80;;;;;;;;;;6095877;23;20076;-81
2023/03/20 11:47:21;;;;;;;7.93;3.65;;;;;;;;;;6119047;23;20029;-81
2023/03/20 11:49:54;;;;;;;7.50;3.80;;;;;;;;;;6095291;23;20697;-81
2023/03/20 11:52:26;;;;;;;8.73;4.32;;;;;;;;;;6094736;23;20028;-81
2023/03/20 11:54:55;;;;;;;8.88;3.95;;;;;;;;;;6119497;23;20021;-81
2023/03/20 11:57:34;;;;;;;8.15;4.10;;;;;;;;;;6094906;23;20021;-81
2023/03/20 12:00:10;;;;;;;7.18;3.63;;;;;;;;;;6145304;23;20021;-82
2023/03/20 12:02:36;;;;;;;7.00;3.70;;;;;;;;;;6146035;23;20116;-81
2023/03/20 12:05:18;;;;;;;9.98;4.20;;;;;;;;;;6145419;23;20384;-79
2023/03/20 12:07:45;;;;;;;8.50;3.90;;;;;;;;;;6095075;23;20464;-78
2023/03/20 12:10:12;;;;;;;10.07;4.30;;;;;;;;;;6118786;23;20021;-78
2023/03/20 12:12:50;;;;;;;9.27;4.13;;;;;;;;;;6119047;23;20021;-79
2023/03/20 12:15:22;;;;;;;10.60;4.32;;;;;;;;;;6119091;23;20729;-78
2023/03/20 12:18:08;;;;;;;9.60;4.60;;;;;;;;;;6119748;23;20021;-77
2023/03/20 12:20:46;;;;;;;9.70;4.60;;;;;;;;;;6145449;23;20017;-80
2023/03/20 12:23:20;;;;;;;7.07;3.35;;;;;;;;;;6145651;23;20505;-80
2023/03/20 12:26:11;;;;;;;7.47;3.40;;;;;;;;;;6118597;23;20419;-79
2023/03/20 12:28:45;;;;;;;8.52;3.97;;;;;;;;;;6118505;23;20025;-79
2023/03/20 12:31:29;;;;;;;8.32;3.75;;;;;;;;;;6117164;23;20025;-80
2023/03/20 12:34:03;;;;;;;10.98;4.78;;;;;;;;;;6094705;23;20028;-79
2023/03/20 12:36:33;;;;;;;9.27;4.80;;;;;;;;;;6119364;23;20096;-79
2023/03/20 12:39:01;;;;;;;9.48;3.88;;;;;;;;;;6088413;23;20092;-78
2023/03/20 12:41:40;;;;;;;6.70;3.72;;;;;;;;;;6115458;23;20429;-78
2023/03/20 12:44:34;;;;;;;10.60;4.53;;;;;;;;;;6116348;23;20072;-77
2023/03/20 12:47:25;;;;;;;7.78;4.40;;;;;;;;;;6115921;23;20048;-78
2023/03/20 12:50:15;;;;;;;11.60;4.72;;;;;;;;;;6089042;23;20029;-81
2023/03/20 12:52:45;;;;;;;10.48;4.80;;;;;;;;;;6088951;23;20022;-78
2023/03/20 12:55:19;;;;;;;12.00;5.18;;;;;;;;;;6089563;23;20033;-77
2023/03/20 12:58:03;;;;;;;9.93;4.78;;;;;;;;;;6090735;23;20340;-78
2023/03/20 13:00:32;;;;;;;9.43;4.50;;;;;;;;;;6114030;23;20510;-77
2023/03/20 13:03:30;;;;;;;12.18;5.05;;;;;;;;;;6115805;23;20448;-78
2023/03/20 13:06:14;;;;;;;8.82;4.13;;;;;;;;;;6114327;23;20022;-78
2023/03/20 13:09:04;;;;;;;9.38;4.75;;;;;;;;;;6090053;23;20025;-78
2023/03/20 13:11:47;;;;;;;9.43;4.70;;;;;;;;;;6116585;23;20064;-77
2023/03/20 13:14:27;;;;;;;8.63;4.70;;;;;;;;;;6066038;23;20022;-79
2023/03/20 13:16:55;;;;;;;11.25;5.00;;;;;;;;;;6113640;23;20096;-79
2023/03/20 13:19:44;;;;;;;12.32;5.45;;;;;;;;;;6090178;23;20060;-80
2023/03/20 13:22:23;;;;;;;11.38;5.70;;;;;;;;;;6089939;23;20655;-82
2023/03/20 13:24:53;;;;;;;10.60;4.80;;;;;;;;;;6090651;23;20361;-81
2023/03/20 13:27:33;;;;;;;9.13;4.65;;;;;;;;;;6070727;23;20463;-81
2023/03/20 13:30:07;;;;;;;11.07;5.90;;;;;;;;;;6095040;23;20116;-81
2023/03/20 13:32:44;;;;;;;12.52;5.15;;;;;;;;;;6100732;23;20014;-82
2023/03/20 13:35:31;;;;;;;11.50;5.57;;;;;;;;;;6098091;23;20109;-82
2023/03/20 13:38:00;;;;;;;11.32;5.00;;;;;;;;;;6127976;23;20018;-82
2023/03/20 13:40:36;;;;;;;9.38;4.85;;;;;;;;;;6118377;23;20026;-82
2023/03/20 13:43:17;;;;;;;10.70;5.28;;;;;;;;;;6125496;23;20059;-82
2023/03/20 13:45:42;;;;;;;11.60;5.55;;;;;;;;;;6158491;23;20073;-82
2023/03/20 13:48:33;;;;;;;11.15;5.03;;;;;;;;;;6125977;23;20044;-81
2023/03/20 13:51:00;;;;;;;10.75;5.18;;;;;;;;;;6149804;23;20474;-81
2023/03/20 13:54:05;;;;;;;10.75;4.80;;;;;;;;;;6129168;23;20022;-82
2023/03/20 13:56:41;;;;;;;10.57;5.28;;;;;;;;;;6122548;23;20380;-81
2023/03/20 13:59:37;;;;;;;10.48;5.10;;;;;;;;;;6147435;23;20030;-81
2023/03/20 14:02:21;;;;;;;11.45;5.40;;;;;;;;;;6146410;23;20021;-80
2023/03/20 14:04:50;;;;;;;13.13;5.63;;;;;;;;;;6107457;23;20014;-81
2023/03/20 14:07:31;;;;;;;10.32;5.40;;;;;;;;;;6147098;23;20022;-79
2023/03/20 14:09:56;;;;;;;13.20;5.72;;;;;;;;;;6119968;23;20440;-80
2023/03/20 14:12:26;;;;;;;13.57;6.30;;;;;;;;;;6145977;23;20032;-81
2023/03/20 14:14:56;;;;;;;11.32;5.80;;;;;;;;;;6121121;23;20045;-81
2023/03/20 14:17:28;;;;;;;13.27;6.18;;;;;;;;;;6145731;23;20371;-81
2023/03/20 14:19:54;;;;;;;12.68;5.57;;;;;;;;;;6095656;23;20017;-78
2023/03/20 14:22:27;;;;;;;13.45;6.18;;;;;;;;;;6118843;23;20325;-78
2023/03/20 14:24:58;;;;;;;11.60;6.03;;;;;;;;;;6119578;23;20021;-80
2023/03/20 14:27:27;;;;;;;13.18;6.60;;;;;;;;;;6118374;23;20080;-82
2023/03/20 14:29:52;;;;;;;11.77;6.00;;;;;;;;;;6119865;23;20049;-81
2023/03/20 14:32:22;;;;;;;12.52;6.05;;;;;;;;;;6118576;23;20021;-81
2023/03/20 14:34:51;;;;;;;14.23;7.07;;;;;;;;;;6119958;23;20014;-83
2023/03/20 14:37:36;;;;;;;12.38;6.25;;;;;;;;;;6120097;23;20032;-83
2023/03/20 14:40:21;;;;;;;11.55;5.43;;;;;;;;;;6118802;23;20021;-81
2023/03/20 14:42:49;;;;;;;12.27;6.30;;;;;;;;;;6119379;23;20328;-81
2023/03/20 14:45:44;;;;;;;13.15;6.50;;;;;;;;;;6144637;23;20387;-81
2023/03/20 14:48:30;;;;;;;11.80;5.88;;;;;;;;;;6120639;23;20460;-81
2023/03/20 14:51:29;;;;;;;11.90;5.55;;;;;;;;;;6144702;23;20740;-81
2023/03/20 14:53:55;;;;;;;13.43;6.32;;;;;;;;;;6146080;23;20018;-79
2023/03/20 14:56:28;;;;;;;14.82;6.32;;;;;;;;;;6119335;23;20017;-81
2023/03/20 14:59:02;;;;;;;13.30;6.30;;;;;;;;;;6095075;23;20032;-82